Strona główna
METAR-TAF:

METAR-TAF

Lotnisko :

Toledo Suburban Airport

Lambertville, Michigan, Stany Zjednoczone

Szerokość geograficzna: 41-44-09N, Długość geograficzna: 083-39-19W, wysokość: 204 m

Aktualna obserwacja pogody

Raport powstał 5 minut temu, godzina 16:35 UTC
Wiatr 9 kt od wschodnio-południowy wschód
Temperatura 23°C
Wilgotność 38%
Ciśnienie 1024 hPa
Widzialność: 16.1 km
Rozproszone chmury na wysokości 5500 ft

METAR: KDUH 171635Z AUTO 11009KT 10SM SCT055 23/08 A3023 RMK AO2 T02340078

czas: 12:40 (16:40 UTC)


TAF: brakujący

Obserwacja i prognoza pogody dla ponad 4000 lotnisk (raport METAR i TAF).

Dostępne stacje oznaczono żółtymi i czerwonymi punktami na mapie.

Najedź kursorem aby zobaczyć nazwę stacji.

Kliknij aby zobaczyć obserwacje i prognozy pogody.

Aby zmienić mapę: kliknij na zielony przycisk z czarnym krzyżykiem, aby powiększyć; na zielony przycisk z myślnikiem, aby pomniejszyć; na zielone strzałki, aby przejść do map sąsiednich.


METAR-TAF: